Time;durP1;ratioP1;P1;durP2;ratioP2;P2;SDS_P1;SDS_P2;PMS_P1;PMS_P2;Temp;Humidity;BMP_temperature;BMP_pressure;BME280_temperature;BME280_humidity;BME280_pressure;Samples;Min_cycle;Max_cycle;Signal;HPM_P1;HPM_P2
2022/02/11 00:00:51;;;;;;;10.82;6.47;;;6.60;99.90;;;;;;5073739;28;20036;-73
2022/02/11 00:09:05;;;;;;;10.48;6.50;;;6.50;99.90;;;;;;5090480;28;20043;-72
2022/02/11 00:11:40;;;;;;;8.75;6.15;;;6.40;99.90;;;;;;5090469;28;20062;-73
2022/02/11 00:14:09;;;;;;;10.57;6.55;;;6.40;99.90;;;;;;5072661;28;20075;-73
2022/02/11 00:16:41;;;;;;;13.45;6.85;;;6.40;99.90;;;;;;5073923;28;20040;-73
2022/02/11 00:19:13;;;;;;;10.13;6.13;;;6.30;99.90;;;;;;5055645;28;20090;-72
2022/02/11 00:21:44;;;;;;;9.90;6.05;;;6.30;99.90;;;;;;5072069;28;20058;-72
2022/02/11 00:24:16;;;;;;;11.75;6.68;;;6.30;99.90;;;;;;5090396;28;20032;-73
2022/02/11 00:27:06;;;;;;;11.55;7.25;;;6.30;99.90;;;;;;5073682;28;20044;-73
2022/02/11 00:32:30;;;;;;;14.68;7.93;;;6.30;99.90;;;;;;5094219;28;20054;-73
2022/02/11 00:35:06;;;;;;;14.45;7.28;;;6.30;99.90;;;;;;5094732;28;20044;-72
2022/02/11 00:37:40;;;;;;;11.43;6.28;;;6.30;99.90;;;;;;5094871;28;20040;-73
2022/02/11 01:04:47;;;;;;;14.77;7.25;;;6.30;99.90;;;;;;5093898;28;20040;-73
2022/02/11 01:07:19;;;;;;;13.68;7.32;;;6.30;99.90;;;;;;5092679;28;20072;-73
2022/02/11 01:09:51;;;;;;;13.35;7.63;;;6.20;99.90;;;;;;5093569;28;20462;-73
2022/02/11 01:12:25;;;;;;;14.38;7.90;;;6.20;99.90;;;;;;5075511;28;20040;-74
2022/02/11 01:14:58;;;;;;;10.65;7.82;;;6.20;99.90;;;;;;5075644;28;20127;-73
2022/02/11 01:17:35;;;;;;;15.48;7.72;;;6.20;99.90;;;;;;5093877;28;20036;-74
2022/02/11 01:20:51;;;;;;;15.50;9.40;;;6.20;99.90;;;;;;5075683;28;20483;-74
2022/02/11 01:23:26;;;;;;;10.65;7.43;;;6.20;99.90;;;;;;5069238;28;20052;-73
2022/02/11 01:26:18;;;;;;;15.70;8.45;;;6.20;99.90;;;;;;5092516;28;20438;-73
2022/02/11 01:48:22;;;;;;;15.68;8.25;;;6.00;99.90;;;;;;5075015;28;20074;-73
2022/02/11 01:53:40;;;;;;;14.68;7.40;;;5.90;99.90;;;;;;5092777;28;20048;-73
2022/02/11 03:56:31;;;;;;;8.48;5.80;;;5.70;99.90;;;;;;5071378;28;20572;-74
2022/02/11 04:25:27;;;;;;;16.50;9.93;;;5.10;99.90;;;;;;5094069;28;20046;-74
2022/02/11 04:55:25;;;;;;;18.35;10.63;;;4.60;99.90;;;;;;5055507;28;20041;-74
2022/02/11 05:00:44;;;;;;;17.20;12.45;;;4.60;99.90;;;;;;5092116;28;20493;-76
2022/02/11 05:03:11;;;;;;;20.52;12.07;;;4.70;99.90;;;;;;5093184;28;20119;-74
2022/02/11 05:05:49;;;;;;;16.17;11.10;;;4.60;99.90;;;;;;5075487;28;20495;-74
2022/02/11 05:08:25;;;;;;;18.13;11.13;;;4.50;99.90;;;;;;5092764;28;20542;-74
2022/02/11 05:11:00;;;;;;;18.35;12.18;;;4.60;99.90;;;;;;5091796;28;20058;-75
2022/02/11 05:13:27;;;;;;;18.23;12.25;;;4.60;99.90;;;;;;5057936;28;20040;-73
2022/02/11 05:15:54;;;;;;;17.90;11.27;;;4.50;99.90;;;;;;5079414;28;20508;-73
2022/02/11 05:18:26;;;;;;;17.85;11.05;;;4.60;99.90;;;;;;5078069;28;20060;-75
2022/02/11 05:20:53;;;;;;;16.15;11.32;;;4.50;99.90;;;;;;5075776;28;20067;-73
2022/02/11 05:23:20;;;;;;;15.90;10.80;;;4.50;99.90;;;;;;5084452;28;20460;-73
2022/02/11 05:25:52;;;;;;;14.82;11.18;;;4.50;99.90;;;;;;5085386;28;20037;-73
2022/02/11 05:28:25;;;;;;;20.25;12.18;;;4.50;99.90;;;;;;5058157;28;20048;-73
2022/02/11 05:30:57;;;;;;;16.77;11.32;;;4.40;99.90;;;;;;5057672;28;20072;-73
2022/02/11 05:33:29;;;;;;;17.77;10.82;;;4.40;99.90;;;;;;5053669;28;20049;-74
2022/02/11 05:36:04;;;;;;;17.83;11.50;;;4.40;99.90;;;;;;5092278;28;20052;-74
2022/02/11 05:38:31;;;;;;;15.45;10.63;;;4.40;99.90;;;;;;5083035;28;20059;-73
2022/02/11 05:41:04;;;;;;;16.30;11.38;;;4.30;99.90;;;;;;5054789;28;20041;-73
2022/02/11 05:43:30;;;;;;;16.88;11.40;;;4.30;99.90;;;;;;5054403;28;20071;-74
2022/02/11 05:45:59;;;;;;;16.88;10.95;;;4.30;99.90;;;;;;5091656;28;20078;-73
2022/02/11 05:48:28;;;;;;;16.25;10.45;;;4.30;99.90;;;;;;5091497;28;20067;-73
2022/02/11 05:51:02;;;;;;;15.77;10.52;;;4.20;99.90;;;;;;5091535;28;20048;-73
2022/02/11 05:53:34;;;;;;;15.68;9.57;;;4.20;99.90;;;;;;5078080;28;20505;-73
2022/02/11 05:56:06;;;;;;;15.55;9.68;;;4.20;99.90;;;;;;5094388;28;20126;-73
2022/02/11 05:58:33;;;;;;;11.98;7.68;;;4.10;99.90;;;;;;5091285;28;20143;-73
2022/02/11 06:01:01;;;;;;;12.38;8.15;;;4.10;99.90;;;;;;5072030;28;20063;-74
2022/02/11 06:03:29;;;;;;;7.38;5.10;;;4.10;99.90;;;;;;5078211;28;20036;-73
2022/02/11 06:06:01;;;;;;;6.57;4.35;;;4.00;99.90;;;;;;5058178;28;20052;-73
2022/02/11 06:08:33;;;;;;;7.15;5.10;;;4.00;99.90;;;;;;5078930;28;20443;-73
2022/02/11 06:11:00;;;;;;;6.97;4.63;;;4.00;99.90;;;;;;5088260;28;20068;-74
2022/02/11 06:13:27;;;;;;;4.90;3.75;;;3.90;99.90;;;;;;5078478;28;20123;-73
2022/02/11 06:16:00;;;;;;;3.97;2.95;;;3.80;99.90;;;;;;5075850;28;20122;-73
2022/02/11 06:18:32;;;;;;;3.72;2.83;;;3.80;99.90;;;;;;5065322;28;20095;-73
2022/02/11 06:21:01;;;;;;;3.53;2.38;;;3.70;99.90;;;;;;5062235;28;20403;-73
2022/02/11 06:23:33;;;;;;;4.97;2.60;;;3.60;99.90;;;;;;5094332;28;20112;-73
2022/02/11 06:26:00;;;;;;;2.58;2.38;;;3.60;99.90;;;;;;5083998;28;20039;-74
2022/02/11 06:28:26;;;;;;;3.00;2.25;;;3.50;99.90;;;;;;5088340;28;20045;-73
2022/02/11 06:30:53;;;;;;;2.22;2.03;;;3.50;99.90;;;;;;5076520;28;20559;-73
2022/02/11 06:33:26;;;;;;;3.20;2.60;;;3.40;99.90;;;;;;5077588;28;20458;-73
2022/02/11 06:35:59;;;;;;;2.60;1.90;;;3.40;99.90;;;;;;5055724;28;20135;-73
2022/02/11 06:38:26;;;;;;;5.03;2.30;;;3.30;99.90;;;;;;5085913;28;20072;-73
2022/02/11 06:40:58;;;;;;;2.35;1.92;;;3.30;99.90;;;;;;5053810;28;20144;-73
2022/02/11 06:43:25;;;;;;;3.38;2.88;;;3.20;99.90;;;;;;5064398;28;20037;-73
2022/02/11 06:45:52;;;;;;;2.80;2.45;;;3.20;99.90;;;;;;5084406;28;20135;-73
2022/02/11 06:48:25;;;;;;;3.30;2.70;;;3.10;99.90;;;;;;5074297;28;20042;-73
2022/02/11 06:50:53;;;;;;;3.63;2.92;;;3.10;99.90;;;;;;5074289;28;20036;-73
2022/02/11 06:53:22;;;;;;;5.40;3.92;;;3.00;99.90;;;;;;5096593;28;20071;-73
2022/02/11 06:55:54;;;;;;;2.92;2.63;;;3.00;99.90;;;;;;5072333;28;20048;-73
2022/02/11 06:58:27;;;;;;;3.50;2.58;;;2.90;99.90;;;;;;5074004;28;20043;-73
2022/02/11 07:01:02;;;;;;;4.32;2.95;;;2.90;99.90;;;;;;5069052;28;20046;-73
2022/02/11 07:03:29;;;;;;;4.13;3.10;;;3.00;99.90;;;;;;5042288;28;20102;-73
2022/02/11 07:06:01;;;;;;;3.17;2.85;;;2.90;99.90;;;;;;5088636;28;20481;-73
2022/02/11 07:08:33;;;;;;;3.85;2.97;;;2.90;99.90;;;;;;5089973;28;20122;-73
2022/02/11 07:11:05;;;;;;;4.85;3.88;;;2.80;99.90;;;;;;5078888;28;20123;-73
2022/02/11 07:13:39;;;;;;;3.67;2.92;;;2.80;99.90;;;;;;5076670;28;20050;-73
2022/02/11 07:16:07;;;;;;;3.20;2.88;;;2.80;99.90;;;;;;5089419;28;20123;-73
2022/02/11 07:18:39;;;;;;;6.13;3.60;;;2.70;99.90;;;;;;5108505;28;20052;-73
2022/02/11 07:21:11;;;;;;;3.42;3.03;;;2.60;99.90;;;;;;5073792;28;20039;-73
2022/02/11 07:23:41;;;;;;;3.35;2.80;;;2.60;99.90;;;;;;5051684;28;20029;-73
2022/02/11 07:26:12;;;;;;;3.20;2.90;;;2.60;99.90;;;;;;5062993;28;20581;-73
2022/02/11 07:28:39;;;;;;;2.97;2.55;;;2.60;99.90;;;;;;5066999;28;20111;-73
2022/02/11 07:31:06;;;;;;;3.35;2.60;;;2.50;99.90;;;;;;5072717;28;20135;-73
2022/02/11 07:33:37;;;;;;;2.67;2.45;;;2.60;99.90;;;;;;5073511;28;20036;-73
2022/02/11 07:36:12;;;;;;;2.60;2.28;;;2.50;99.90;;;;;;5090806;28;20114;-74
2022/02/11 07:38:44;;;;;;;2.80;2.50;;;2.50;99.90;;;;;;5086826;28;20482;-73
2022/02/11 07:41:15;;;;;;;2.80;2.30;;;2.50;99.90;;;;;;5090864;28;20123;-73
2022/02/11 07:43:45;;;;;;;3.15;2.20;;;2.60;99.90;;;;;;5072514;28;20072;-79
2022/02/11 07:46:12;;;;;;;3.03;2.53;;;2.50;99.90;;;;;;5071845;28;20048;-73
2022/02/11 07:48:39;;;;;;;4.13;3.17;;;2.50;99.90;;;;;;5069713;28;20147;-76
2022/02/11 07:51:07;;;;;;;4.38;3.50;;;2.50;99.90;;;;;;5053059;28;20140;-76
2022/02/11 07:53:34;;;;;;;3.17;2.88;;;2.50;99.90;;;;;;5056902;28;20036;-74
2022/02/11 07:56:07;;;;;;;4.18;3.20;;;2.50;99.90;;;;;;5077126;28;20050;-75
2022/02/11 07:58:39;;;;;;;3.75;3.15;;;2.50;99.90;;;;;;5074617;28;20119;-76
2022/02/11 08:01:09;;;;;;;5.57;4.28;;;2.50;99.90;;;;;;5072694;28;20155;-77
2022/02/11 08:03:41;;;;;;;4.60;3.63;;;2.50;99.90;;;;;;5075526;28;20045;-76
2022/02/11 08:06:13;;;;;;;5.03;4.53;;;2.50;99.90;;;;;;5078275;28;20050;-76
2022/02/11 08:08:45;;;;;;;5.05;4.32;;;2.50;99.90;;;;;;5072095;28;20131;-76
2022/02/11 08:11:12;;;;;;;6.90;4.68;;;2.50;99.90;;;;;;5092115;28;20040;-76
2022/02/11 08:13:39;;;;;;;7.72;5.07;;;2.50;99.90;;;;;;5068189;28;20198;-76
2022/02/11 08:16:07;;;;;;;5.63;4.50;;;2.50;99.90;;;;;;5068749;28;20393;-77
2022/02/11 08:18:34;;;;;;;9.10;4.80;;;2.50;99.90;;;;;;5069016;28;20132;-76
2022/02/11 08:21:06;;;;;;;7.05;5.85;;;2.50;99.90;;;;;;5078581;28;20496;-76
2022/02/11 08:23:37;;;;;;;5.75;4.70;;;2.50;99.90;;;;;;5048334;28;20068;-77
2022/02/11 08:26:10;;;;;;;5.70;5.07;;;2.50;99.90;;;;;;5083802;28;20082;-77
2022/02/11 08:28:36;;;;;;;5.68;4.68;;;2.50;99.90;;;;;;5068505;28;20120;-76
2022/02/11 08:31:08;;;;;;;5.78;4.63;;;2.50;99.90;;;;;;5068602;28;20456;-77
2022/02/11 08:33:40;;;;;;;10.45;5.43;;;2.50;99.90;;;;;;5052327;28;20059;-77
2022/02/11 08:36:12;;;;;;;6.13;4.80;;;2.40;99.90;;;;;;5071725;28;20551;-76
2022/02/11 08:38:44;;;;;;;8.98;6.05;;;2.50;99.90;;;;;;5071449;28;20131;-76
2022/02/11 08:41:17;;;;;;;8.70;5.55;;;2.50;99.90;;;;;;5057196;28;20078;-77
2022/02/11 08:43:44;;;;;;;7.53;5.65;;;2.50;99.90;;;;;;5067995;28;20518;-77
2022/02/11 08:46:11;;;;;;;6.78;5.00;;;2.50;99.90;;;;;;5086974;28;20086;-76
2022/02/11 08:48:38;;;;;;;9.52;5.78;;;2.50;99.90;;;;;;5071224;28;20772;-76
2022/02/11 08:51:05;;;;;;;7.07;4.47;;;2.60;99.90;;;;;;5070178;28;20094;-76
2022/02/11 08:53:37;;;;;;;9.00;5.55;;;2.50;99.90;;;;;;5074591;28;20498;-76
2022/02/11 08:56:06;;;;;;;8.40;5.45;;;2.60;99.90;;;;;;5075387;28;20524;-76
2022/02/11 08:58:38;;;;;;;7.25;5.32;;;2.60;99.90;;;;;;5093806;28;20110;-76
2022/02/11 09:01:10;;;;;;;8.90;5.97;;;2.50;99.90;;;;;;5055292;28;20593;-77
2022/02/11 09:03:39;;;;;;;7.15;5.20;;;2.50;99.90;;;;;;5065805;28;20097;-77
2022/02/11 09:06:07;;;;;;;6.18;4.88;;;2.60;99.90;;;;;;5073425;28;20143;-76
2022/02/11 09:08:35;;;;;;;6.22;4.95;;;2.60;99.90;;;;;;5078848;28;20139;-77
2022/02/11 09:11:07;;;;;;;7.60;5.15;;;2.60;99.90;;;;;;5058839;28;20139;-77
2022/02/11 09:13:35;;;;;;;8.00;5.10;;;2.60;99.90;;;;;;5077768;28;20082;-76
2022/02/11 09:16:06;;;;;;;11.88;3.75;;;2.50;99.90;;;;;;5055507;28;20143;-76
2022/02/11 09:18:36;;;;;;;6.25;5.00;;;2.50;99.90;;;;;;5064043;28;20040;-76
2022/02/11 09:21:08;;;;;;;6.22;4.80;;;2.50;99.90;;;;;;5067816;28;20049;-77
2022/02/11 09:23:35;;;;;;;5.45;4.10;;;2.50;99.90;;;;;;5088507;28;20123;-76
2022/02/11 09:26:07;;;;;;;6.63;3.85;;;2.40;99.90;;;;;;5088651;28;20115;-75
2022/02/11 09:28:39;;;;;;;6.07;3.67;;;2.30;99.90;;;;;;5080189;28;20072;-75
2022/02/11 09:31:11;;;;;;;7.95;3.83;;;2.40;99.90;;;;;;5075123;28;20754;-75
2022/02/11 09:33:43;;;;;;;5.50;3.00;;;2.40;99.90;;;;;;5075046;28;20148;-75
2022/02/11 09:36:11;;;;;;;5.38;2.70;;;2.50;99.90;;;;;;5092540;28;20052;-77
2022/02/11 09:38:38;;;;;;;2.63;1.92;;;2.50;99.90;;;;;;5083783;28;20124;-74
2022/02/11 09:41:11;;;;;;;3.95;2.22;;;2.60;99.90;;;;;;5071945;28;20112;-75
2022/02/11 09:43:44;;;;;;;3.55;2.47;;;2.70;99.90;;;;;;5065879;28;20411;-76
2022/02/11 09:46:17;;;;;;;4.78;2.97;;;2.80;99.90;;;;;;5057752;28;20131;-76
2022/02/11 09:48:43;;;;;;;5.65;2.42;;;2.90;99.90;;;;;;5088780;28;20020;-76
2022/02/11 09:51:09;;;;;;;4.00;2.10;;;2.90;99.90;;;;;;5071711;28;20090;-76
2022/02/11 09:53:41;;;;;;;3.45;2.05;;;2.90;99.90;;;;;;5068896;28;20044;-76
2022/02/11 09:56:13;;;;;;;6.65;2.55;;;3.00;99.90;;;;;;5058614;28;20043;-75
2022/02/11 09:58:40;;;;;;;6.22;2.97;;;3.10;99.90;;;;;;5074684;28;20086;-76
2022/02/11 10:01:12;;;;;;;4.38;2.75;;;3.30;99.90;;;;;;5072926;28;20438;-76
2022/02/11 10:03:38;;;;;;;7.13;2.53;;;3.40;99.90;;;;;;5067910;28;20376;-75
2022/02/11 10:06:10;;;;;;;4.25;1.83;;;3.40;99.90;;;;;;5091550;28;20122;-76
2022/02/11 10:08:39;;;;;;;5.50;2.40;;;3.30;99.90;;;;;;5070705;28;20127;-76
2022/02/11 10:11:08;;;;;;;7.97;2.72;;;3.30;99.90;;;;;;5088047;28;20044;-75
2022/02/11 10:13:40;;;;;;;13.52;3.35;;;3.20;99.90;;;;;;5073900;28;20134;-75
2022/02/11 10:16:14;;;;;;;6.97;2.75;;;3.10;99.90;;;;;;5092109;28;20155;-77
2022/02/11 10:18:48;;;;;;;6.10;3.30;;;3.00;99.90;;;;;;5066178;28;20045;-76
2022/02/11 10:21:20;;;;;;;6.82;2.67;;;2.90;99.90;;;;;;5071108;28;20468;-76
2022/02/11 10:23:50;;;;;;;5.03;2.78;;;2.90;99.90;;;;;;5067659;28;20048;-77
2022/02/11 10:26:19;;;;;;;5.65;3.00;;;2.90;99.90;;;;;;5077315;28;20068;-76
2022/02/11 10:28:52;;;;;;;6.93;3.05;;;2.90;99.90;;;;;;5071008;28;20067;-76
2022/02/11 10:31:29;;;;;;;4.38;2.97;;;3.00;99.90;;;;;;5091752;28;20504;-76
2022/02/11 10:34:14;;;;;;;4.20;2.63;;;3.10;99.90;;;;;;5093823;28;20063;-76
2022/02/11 10:36:49;;;;;;;10.48;2.60;;;3.20;99.90;;;;;;5068738;28;20140;-75
2022/02/11 10:39:25;;;;;;;6.55;2.60;;;3.30;99.90;;;;;;5078043;28;20142;-76
2022/02/11 10:42:12;;;;;;;4.28;2.75;;;3.50;99.90;;;;;;5082244;28;20044;-76
2022/02/11 10:44:42;;;;;;;4.05;2.65;;;3.60;99.90;;;;;;5088484;28;20121;-76
2022/02/11 10:47:15;;;;;;;7.57;3.30;;;3.80;99.90;;;;;;5064423;28;20131;-77
2022/02/11 10:49:48;;;;;;;5.07;2.35;;;4.00;99.90;;;;;;5069054;28;20147;-75
2022/02/11 10:52:19;;;;;;;10.70;3.38;;;3.90;99.90;;;;;;5093565;28;20063;-73
2022/02/11 10:54:54;;;;;;;5.93;2.75;;;4.00;99.90;;;;;;5087122;28;20048;-73
2022/02/11 10:57:29;;;;;;;3.60;2.22;;;4.00;99.90;;;;;;5090924;28;20121;-71
2022/02/11 11:00:04;;;;;;;6.03;2.13;;;4.00;99.90;;;;;;5091542;28;20043;-71
2022/02/11 11:02:36;;;;;;;3.95;2.42;;;4.00;99.90;;;;;;5066087;28;20044;-71
2022/02/11 11:05:10;;;;;;;5.65;2.20;;;4.00;99.90;;;;;;5091267;28;20050;-72
2022/02/11 11:07:42;;;;;;;5.45;2.78;;;3.90;99.90;;;;;;5070982;28;20047;-72
2022/02/11 11:10:15;;;;;;;8.48;2.20;;;3.90;99.90;;;;;;5066480;28;20380;-71
2022/02/11 11:12:54;;;;;;;5.55;1.92;;;4.00;99.90;;;;;;5079118;28;20038;-72
2022/02/11 11:15:27;;;;;;;4.72;1.85;;;4.10;99.90;;;;;;5071645;28;20032;-72
2022/02/11 11:18:05;;;;;;;3.42;2.00;;;4.20;99.90;;;;;;5087038;28;20036;-71
2022/02/11 11:20:42;;;;;;;6.28;2.42;;;4.30;99.90;;;;;;5071192;28;20040;-71
2022/02/11 11:23:28;;;;;;;5.85;1.95;;;4.50;99.90;;;;;;5072298;28;20122;-71
2022/02/11 11:26:06;;;;;;;4.03;2.10;;;4.50;99.90;;;;;;5075255;28;20039;-72
2022/02/11 11:28:52;;;;;;;6.70;2.53;;;4.50;99.90;;;;;;5071279;28;20051;-74
2022/02/11 11:31:28;;;;;;;3.38;2.30;;;4.50;99.90;;;;;;5073739;28;20032;-71
2022/02/11 11:34:18;;;;;;;5.63;1.80;;;4.60;99.90;;;;;;5088661;28;20431;-70
2022/02/11 11:37:07;;;;;;;2.78;1.70;;;4.60;99.90;;;;;;5069059;28;20040;-71
2022/02/11 11:39:40;;;;;;;4.88;2.00;;;4.70;99.90;;;;;;5089386;28;20046;-71
2022/02/11 11:42:14;;;;;;;;;;;4.80;99.90;;;;;;5088541;28;20147;-71
2022/02/11 11:44:50;;;;;;;6.13;1.75;;;4.80;99.90;;;;;;5070325;28;20010;-70
2022/02/11 11:47:33;;;;;;;3.97;2.15;;;4.80;99.90;;;;;;5076294;28;20520;-70
2022/02/11 11:50:08;;;;;;;;;;;4.80;99.90;;;;;;5069572;28;20495;-71
2022/02/11 11:52:43;;;;;;;4.15;1.65;;;4.70;99.90;;;;;;5070993;28;20007;-71
2022/02/11 11:55:23;;;;;;;2.95;1.60;;;4.80;99.90;;;;;;5067796;28;20050;-71
2022/02/11 11:57:55;;;;;;;6.65;2.90;;;4.90;99.90;;;;;;5058876;28;20138;-71
2022/02/11 12:00:39;;;;;;;4.93;3.10;;;4.80;99.90;;;;;;5082498;28;20418;-71
2022/02/11 12:03:11;;;;;;;3.67;1.75;;;4.80;99.90;;;;;;5070823;28;20048;-71
2022/02/11 12:05:53;;;;;;;7.63;2.03;;;4.70;99.90;;;;;;5071558;28;20049;-71
2022/02/11 12:08:28;;;;;;;4.88;2.50;;;4.70;99.90;;;;;;5072878;28;20072;-71
2022/02/11 12:11:02;;;;;;;5.05;2.47;;;4.90;99.90;;;;;;5071199;28;20048;-71
2022/02/11 12:13:35;;;;;;;4.88;1.80;;;5.20;99.90;;;;;;5084717;28;20521;-71
2022/02/11 12:16:08;;;;;;;5.47;1.80;;;5.20;99.90;;;;;;5083132;28;20503;-71
2022/02/11 12:18:46;;;;;;;3.88;1.33;;;5.30;99.90;;;;;;5090035;28;20187;-71
2022/02/11 12:21:20;;;;;;;5.43;1.85;;;5.40;99.90;;;;;;5080808;28;20071;-71
2022/02/11 12:29:23;;;;;;;4.38;2.13;;;5.50;99.90;;;;;;5096634;28;20040;-70
2022/02/11 12:31:57;;;;;;;2.45;1.30;;;5.70;99.90;;;;;;5074746;28;20035;-70
2022/02/11 12:34:29;;;;;;;2.63;1.40;;;5.70;99.90;;;;;;5076326;28;20105;-71
2022/02/11 12:37:09;;;;;;;4.28;1.40;;;5.70;99.90;;;;;;5095233;28;20036;-72
2022/02/11 12:39:44;;;;;;;1.67;1.20;;;5.70;99.90;;;;;;5074625;28;20046;-71
2022/02/11 12:42:24;;;;;;;2.53;1.30;;;5.70;99.90;;;;;;5090424;28;20044;-71
2022/02/11 12:44:52;;;;;;;2.55;1.08;;;5.70;99.90;;;;;;5070366;28;20051;-71
2022/02/11 12:47:24;;;;;;;5.78;1.10;;;5.60;99.90;;;;;;5074113;28;20522;-71
2022/02/11 12:49:52;;;;;;;2.75;0.90;;;5.40;99.90;;;;;;5086302;28;20029;-71
2022/02/11 12:52:27;;;;;;;1.90;1.17;;;5.30;99.90;;;;;;5091109;28;20035;-71
2022/02/11 12:55:16;;;;;;;5.80;1.05;;;5.20;99.90;;;;;;5074424;28;20044;-71
2022/02/11 12:57:49;;;;;;;5.38;1.15;;;5.20;99.90;;;;;;5067582;28;20047;-71
2022/02/11 13:00:27;;;;;;;3.70;1.02;;;5.10;99.90;;;;;;5082149;28;20044;-71
2022/02/11 13:03:01;;;;;;;3.50;1.30;;;4.90;99.90;;;;;;5091632;28;20048;-71
2022/02/11 13:05:45;;;;;;;1.77;0.90;;;4.80;99.90;;;;;;5072918;28;20032;-71
2022/02/11 13:08:29;;;;;;;2.72;1.20;;;4.80;99.90;;;;;;5085543;28;20068;-71
2022/02/11 13:11:04;;;;;;;5.28;2.03;;;4.80;99.90;;;;;;5071452;28;20063;-71
2022/02/11 13:13:36;;;;;;;2.85;1.60;;;4.90;99.90;;;;;;5067591;28;20115;-70
2022/02/11 13:16:05;;;;;;;4.53;1.30;;;5.00;99.90;;;;;;5090646;28;20115;-70
2022/02/11 13:18:40;;;;;;;4.45;1.05;;;4.90;99.90;;;;;;5089674;28;20052;-70
2022/02/11 13:21:12;;;;;;;2.33;0.98;;;4.80;99.90;;;;;;5064255;28;20053;-71
2022/02/11 13:23:49;;;;;;;2.90;1.10;;;4.90;99.90;;;;;;5070434;28;20067;-71
2022/02/11 13:26:26;;;;;;;3.55;1.08;;;4.90;99.90;;;;;;5090380;28;20040;-71
2022/02/11 13:28:58;;;;;;;1.83;1.00;;;4.80;99.90;;;;;;5088777;28;20111;-71
2022/02/11 13:31:47;;;;;;;1.20;0.98;;;4.80;99.90;;;;;;5083239;28;20060;-71
2022/02/11 13:34:19;;;;;;;3.38;1.02;;;4.80;99.90;;;;;;5076313;28;20051;-71
2022/02/11 13:36:53;;;;;;;4.15;1.80;;;5.00;99.90;;;;;;5046514;28;20044;-70
2022/02/11 13:39:36;;;;;;;4.85;1.20;;;5.20;99.90;;;;;;5092765;28;20487;-71
2022/02/11 13:42:12;;;;;;;5.90;1.63;;;5.10;99.90;;;;;;5092523;28;20713;-71
2022/02/11 13:45:07;;;;;;;2.08;1.17;;;5.10;99.90;;;;;;5072107;28;20032;-71
2022/02/11 13:47:55;;;;;;;2.65;1.30;;;5.10;99.90;;;;;;5074658;28;20040;-71
2022/02/11 13:50:28;;;;;;;1.65;1.17;;;5.00;99.90;;;;;;5089878;28;20115;-71
2022/02/11 13:53:04;;;;;;;3.85;1.25;;;4.90;99.90;;;;;;5072393;28;20037;-71
2022/02/11 13:55:38;;;;;;;2.10;1.20;;;5.00;99.90;;;;;;5077162;28;20044;-71
2022/02/11 13:58:16;;;;;;;3.90;1.23;;;4.90;99.90;;;;;;5082212;28;20052;-71
2022/02/11 14:00:43;;;;;;;4.82;1.60;;;4.90;99.90;;;;;;5064293;28;20127;-71
2022/02/11 14:03:22;;;;;;;4.38;1.27;;;5.00;99.90;;;;;;5086688;28;20423;-71
2022/02/11 14:05:55;;;;;;;;;;;5.00;99.90;;;;;;5094915;28;20042;-71
2022/02/11 14:08:25;;;;;;;3.45;1.25;;;4.90;99.90;;;;;;5058128;28;19959;-71
2022/02/11 14:11:11;;;;;;;1.98;1.20;;;4.90;99.90;;;;;;5054484;28;20447;-71
2022/02/11 14:13:39;;;;;;;1.88;1.30;;;4.90;99.90;;;;;;5081344;28;20143;-71
2022/02/11 14:16:11;;;;;;;3.72;1.17;;;5.00;99.90;;;;;;5058670;28;20146;-71
2022/02/11 14:18:40;;;;;;;2.00;1.15;;;5.10;99.90;;;;;;5074480;28;20553;-71
2022/02/11 14:21:13;;;;;;;3.60;1.38;;;5.00;99.90;;;;;;5092851;28;20043;-70
2022/02/11 14:23:46;;;;;;;3.65;1.20;;;4.90;99.90;;;;;;5073910;28;20040;-71
2022/02/11 14:26:17;;;;;;;2.25;1.50;;;4.90;99.90;;;;;;5074877;28;20043;-71
2022/02/11 14:28:49;;;;;;;3.22;1.42;;;4.90;99.90;;;;;;5056218;28;20079;-71
2022/02/11 14:31:19;;;;;;;4.68;1.48;;;4.90;99.90;;;;;;5092929;28;20040;-71
2022/02/11 14:33:51;;;;;;;2.05;1.30;;;5.00;99.90;;;;;;5099828;28;20108;-71
2022/02/11 14:36:22;;;;;;;3.40;1.23;;;5.00;99.90;;;;;;5091955;28;20126;-71
2022/02/11 14:38:51;;;;;;;2.85;1.00;;;5.00;99.90;;;;;;5090107;28;20075;-71
2022/02/11 14:44:18;;;;;;;2.22;1.20;;;5.00;99.90;;;;;;5098328;28;20054;-71
2022/02/11 14:46:46;;;;;;;4.18;1.30;;;4.90;99.90;;;;;;5095035;28;20118;-71
2022/02/11 14:49:19;;;;;;;2.47;1.13;;;4.90;99.90;;;;;;5071726;28;20044;-71
2022/02/11 14:51:54;;;;;;;3.75;1.58;;;4.80;99.90;;;;;;5091853;28;20038;-71
2022/02/11 14:54:21;;;;;;;3.70;1.27;;;4.70;99.90;;;;;;5090073;28;20487;-71
2022/02/11 14:56:50;;;;;;;3.53;1.00;;;4.70;99.90;;;;;;5090467;28;20107;-71
2022/02/11 14:59:22;;;;;;;;;;;4.70;99.90;;;;;;5058189;28;20115;-71
2022/02/11 15:01:53;;;;;;;2.17;1.10;;;4.70;99.90;;;;;;5090399;28;20446;-71
2022/02/11 15:04:25;;;;;;;4.60;1.38;;;4.70;99.90;;;;;;5082177;28;20036;-71
2022/02/11 15:06:52;;;;;;;4.18;1.73;;;4.70;99.90;;;;;;5091194;28;20773;-71
2022/02/11 15:09:24;;;;;;;2.92;1.30;;;4.80;99.90;;;;;;5074091;28;20036;-71
2022/02/11 15:11:56;;;;;;;3.03;1.02;;;4.80;99.90;;;;;;5089868;28;20564;-71
2022/02/11 15:14:29;;;;;;;3.78;1.10;;;4.90;99.90;;;;;;5090687;28;20130;-71
2022/02/11 15:16:57;;;;;;;4.13;2.38;;;4.90;99.90;;;;;;5091211;28;20522;-71
2022/02/11 15:19:25;;;;;;;4.30;1.52;;;4.90;99.90;;;;;;5091019;28;20044;-71
2022/02/11 15:21:57;;;;;;;2.67;1.50;;;4.90;99.90;;;;;;5079378;28;20036;-71
2022/02/11 15:24:30;;;;;;;3.88;1.77;;;4.90;99.90;;;;;;5053400;28;20044;-70
2022/02/11 15:26:58;;;;;;;6.07;1.33;;;4.90;99.90;;;;;;5053205;28;20553;-71
2022/02/11 15:29:30;;;;;;;2.30;1.27;;;4.80;99.90;;;;;;5052634;28;20037;-71
2022/02/11 15:32:02;;;;;;;2.88;1.27;;;4.80;99.90;;;;;;5052812;28;20539;-71
2022/02/11 15:34:35;;;;;;;;;;;4.80;99.90;;;;;;5052941;28;20055;-71
2022/02/11 15:37:08;;;;;;;6.82;2.30;;;4.80;99.90;;;;;;5052701;28;20027;-71
2022/02/11 15:39:41;;;;;;;5.70;2.13;;;4.90;99.90;;;;;;5071521;28;20043;-71
2022/02/11 15:42:09;;;;;;;9.35;2.78;;;4.90;99.90;;;;;;5090375;28;20073;-71
2022/02/11 15:44:36;;;;;;;6.55;2.28;;;4.80;99.90;;;;;;5088120;28;20075;-71
2022/02/11 15:47:08;;;;;;;4.85;3.10;;;4.70;99.90;;;;;;5089356;28;20042;-71
2022/02/11 15:49:41;;;;;;;4.00;1.90;;;4.60;99.90;;;;;;5088271;28;20491;-71
2022/02/11 15:52:16;;;;;;;6.60;2.22;;;4.50;99.90;;;;;;5071901;28;20070;-71
2022/02/11 15:54:43;;;;;;;5.57;1.92;;;4.40;99.90;;;;;;5089608;28;20076;-71
2022/02/11 15:57:10;;;;;;;17.17;8.80;;;4.30;99.90;;;;;;5087846;28;20459;-71
2022/02/11 15:59:38;;;;;;;21.48;10.38;;;4.30;99.90;;;;;;5086697;28;20040;-71
2022/02/11 16:02:11;;;;;;;8.63;2.80;;;4.30;99.90;;;;;;5089425;28;20048;-71
2022/02/11 16:04:44;;;;;;;5.13;2.10;;;4.20;99.90;;;;;;5090059;28;20048;-71
2022/02/11 16:07:11;;;;;;;2.97;1.92;;;4.10;99.90;;;;;;5094513;28;20525;-70
2022/02/11 16:09:48;;;;;;;2.47;1.50;;;4.10;99.90;;;;;;5088819;28;20068;-71
2022/02/11 16:12:15;;;;;;;4.80;2.33;;;4.00;99.90;;;;;;5088207;28;20044;-71
2022/02/11 16:14:42;;;;;;;5.28;2.38;;;4.00;99.90;;;;;;5089215;28;20047;-71
2022/02/11 16:17:10;;;;;;;3.20;1.98;;;3.90;99.90;;;;;;5087677;28;20050;-71
2022/02/11 16:19:44;;;;;;;7.35;2.63;;;3.90;99.90;;;;;;5073842;28;20040;-71
2022/02/11 16:22:16;;;;;;;6.68;2.20;;;3.90;99.90;;;;;;5089438;28;20040;-71
2022/02/11 16:24:43;;;;;;;5.38;2.80;;;3.90;99.90;;;;;;5090260;28;20119;-71
2022/02/11 16:27:17;;;;;;;5.28;2.28;;;3.90;99.90;;;;;;5090309;28;20119;-71
2022/02/11 16:29:49;;;;;;;4.32;3.03;;;3.90;99.90;;;;;;5072316;28;21213;-71
2022/02/11 16:32:21;;;;;;;4.95;2.80;;;3.90;99.90;;;;;;5072589;28;20799;-71
2022/02/11 16:34:52;;;;;;;6.18;2.40;;;3.90;99.90;;;;;;5087460;28;20036;-70
2022/02/11 16:37:24;;;;;;;4.00;2.30;;;3.90;99.90;;;;;;5072228;28;20050;-71
2022/02/11 16:39:51;;;;;;;6.70;2.50;;;3.90;99.90;;;;;;5089036;28;20067;-71
2022/02/11 16:42:24;;;;;;;5.40;2.55;;;3.80;99.90;;;;;;5085094;28;20051;-71
2022/02/11 16:44:58;;;;;;;4.55;2.40;;;3.80;99.90;;;;;;5071266;28;20108;-71
2022/02/11 16:47:31;;;;;;;4.03;2.40;;;3.80;99.90;;;;;;5069234;28;20055;-71
2022/02/11 16:50:07;;;;;;;9.57;3.40;;;3.70;99.90;;;;;;5072430;28;20036;-71
2022/02/11 16:52:41;;;;;;;6.90;3.17;;;3.80;99.90;;;;;;5080400;28;20094;-70
2022/02/11 16:55:12;;;;;;;9.40;3.72;;;3.80;99.90;;;;;;5083046;28;20058;-71
2022/02/11 16:57:45;;;;;;;4.50;3.10;;;3.70;99.90;;;;;;5072289;28;20055;-71
2022/02/11 17:00:17;;;;;;;5.53;2.70;;;3.60;99.90;;;;;;5083642;28;20125;-72
2022/02/11 17:02:49;;;;;;;6.82;3.33;;;3.60;99.90;;;;;;5069512;28;20048;-72
2022/02/11 17:05:21;;;;;;;7.28;4.07;;;3.60;99.90;;;;;;5089064;28;20064;-74
2022/02/11 17:07:49;;;;;;;10.85;4.88;;;3.60;99.90;;;;;;5090360;28;20048;-71
2022/02/11 17:10:26;;;;;;;9.20;2.60;;;3.60;99.90;;;;;;5089318;28;20033;-71
2022/02/11 17:12:58;;;;;;;4.38;2.47;;;3.60;99.90;;;;;;5099440;28;20048;-71
2022/02/11 17:15:33;;;;;;;14.13;8.38;;;3.60;99.90;;;;;;5094456;28;20054;-71
2022/02/11 17:18:08;;;;;;;10.15;6.47;;;3.60;99.90;;;;;;5099409;28;20048;-71
2022/02/11 17:20:35;;;;;;;16.25;7.95;;;3.50;99.90;;;;;;5081350;28;20063;-71
2022/02/11 17:23:07;;;;;;;14.48;9.43;;;3.50;99.90;;;;;;5076911;28;20048;-72